Time;durP1;ratioP1;P1;durP2;ratioP2;P2;SDS_P1;SDS_P2;PMS_P1;PMS_P2;Temp;Humidity;BMP_temperature;BMP_pressure;BME280_temperature;BME280_humidity;BME280_pressure;Samples;Min_cycle;Max_cycle;Signal;HPM_P1;HPM_P2
2021/05/04 00:01:33;;;;;;;27.13;10.05;;;;;;;3.62;76.91;100455.80;1794737;80;21663;-70
2021/05/04 00:03:59;;;;;;;22.45;9.60;;;;;;;3.61;76.96;100452.79;1794688;80;21154;-70
2021/05/04 00:06:25;;;;;;;27.58;9.80;;;;;;;3.60;76.99;100449.78;1794817;80;21143;-70
2021/05/04 00:08:51;;;;;;;18.35;7.87;;;;;;;3.60;77.03;100452.42;1794629;80;21128;-70
2021/05/04 00:11:18;;;;;;;20.62;9.63;;;;;;;3.59;77.06;100444.98;1794651;80;21529;-70
2021/05/04 00:13:44;;;;;;;21.48;9.48;;;;;;;3.60;77.11;100447.15;1794709;80;21631;-71
2021/05/04 00:16:10;;;;;;;26.35;10.28;;;;;;;3.60;77.14;100448.47;1794569;80;21600;-70
2021/05/04 00:18:36;;;;;;;14.00;7.47;;;;;;;3.60;77.17;100445.83;1791791;80;21569;-70
2021/05/04 00:21:03;;;;;;;14.80;7.65;;;;;;;3.59;77.21;100437.59;1786071;80;21188;-70
2021/05/04 00:23:30;;;;;;;22.70;9.43;;;;;;;3.60;77.24;100449.78;1786284;80;21652;-71
2021/05/04 00:25:56;;;;;;;18.00;8.63;;;;;;;3.59;77.27;100444.18;1785642;80;22148;-70
2021/05/04 00:28:22;;;;;;;18.52;7.80;;;;;;;3.59;77.30;100442.35;1786153;80;21195;-70
2021/05/04 00:30:49;;;;;;;19.15;8.28;;;;;;;3.56;77.33;100439.12;1785810;80;21159;-70
2021/05/04 00:33:15;;;;;;;19.10;8.20;;;;;;;3.53;77.37;100439.75;1785709;80;21187;-70
2021/05/04 00:35:41;;;;;;;36.28;16.23;;;;;;;3.53;77.43;100434.48;1785721;80;21137;-70
2021/05/04 00:38:08;;;;;;;34.13;14.43;;;;;;;3.53;77.44;100434.95;1785763;80;21259;-70
2021/05/04 00:40:34;;;;;;;32.60;11.70;;;;;;;3.49;77.46;100431.73;1785670;80;21156;-70
2021/05/04 00:43:00;;;;;;;17.27;8.40;;;;;;;3.45;77.51;100425.02;1785387;80;21127;-70
2021/05/04 00:45:26;;;;;;;28.17;10.53;;;;;;;3.43;77.55;100421.69;1785641;80;21604;-70
2021/05/04 00:47:53;;;;;;;26.50;11.75;;;;;;;3.40;77.57;100408.76;1785806;80;21966;-70
2021/05/04 00:50:19;;;;;;;35.80;18.15;;;;;;;3.39;77.61;100414.98;1785730;79;21160;-70
2021/05/04 00:52:45;;;;;;;30.37;13.10;;;;;;;3.35;77.62;100409.59;1785800;80;21140;-70
2021/05/04 00:55:12;;;;;;;28.45;11.55;;;;;;;3.32;77.64;100400.63;1785687;80;21152;-70
2021/05/04 00:57:38;;;;;;;28.40;11.88;;;;;;;3.31;77.66;100405.53;1785765;80;21596;-70
2021/05/04 01:00:06;;;;;;;24.63;10.28;;;;;;;3.29;77.70;100395.60;1785714;80;21155;-70
2021/05/04 01:02:32;;;;;;;33.58;12.35;;;;;;;3.29;77.71;100396.08;1785830;80;21197;-70
2021/05/04 01:05:00;;;;;;;21.60;10.03;;;;;;;3.29;77.75;100392.13;1785227;80;21195;-71
2021/05/04 01:07:27;;;;;;;27.73;12.07;;;;;;;3.31;77.78;100388.88;1785719;80;21131;-70
2021/05/04 01:09:54;;;;;;;28.20;11.03;;;;;;;3.32;77.79;100388.77;1785630;80;21166;-70
2021/05/04 01:12:22;;;;;;;24.10;10.60;;;;;;;3.32;77.82;100381.33;1785665;80;21128;-70
2021/05/04 01:14:48;;;;;;;26.25;10.65;;;;;;;3.29;77.84;100378.47;1785817;80;21211;-70
2021/05/04 01:17:14;;;;;;;25.65;10.48;;;;;;;3.27;77.86;100373.79;1785605;80;21175;-70
2021/05/04 01:19:41;;;;;;;15.20;8.23;;;;;;;3.25;77.89;100370.45;1778147;80;21176;-70
2021/05/04 01:22:07;;;;;;;16.23;7.55;;;;;;;3.23;77.88;100363.64;1774395;80;21167;-70
2021/05/04 01:24:34;;;;;;;18.02;9.18;;;;;;;3.22;77.94;100360.16;1774428;80;21131;-70
2021/05/04 01:27:00;;;;;;;16.10;8.38;;;;;;;3.19;77.94;100357.78;1774353;80;21187;-70
2021/05/04 01:29:27;;;;;;;17.60;8.33;;;;;;;3.21;77.97;100355.01;1774244;80;21159;-70
2021/05/04 01:31:54;;;;;;;16.42;8.33;;;;;;;3.17;77.98;100351.78;1774453;80;21672;-70
2021/05/04 01:34:21;;;;;;;16.05;7.90;;;;;;;3.14;78.00;100346.77;1774441;80;21156;-71
2021/05/04 01:36:48;;;;;;;13.05;6.92;;;;;;;3.15;78.03;100344.50;1774386;80;21640;-70
2021/05/04 01:39:14;;;;;;;12.20;6.60;;;;;;;3.15;78.07;100339.23;1774251;80;21147;-70
2021/05/04 01:41:40;;;;;;;12.60;7.03;;;;;;;3.17;78.05;100339.92;1774269;80;21168;-70
2021/05/04 01:44:09;;;;;;;15.10;7.35;;;;;;;3.15;78.07;100339.23;1774312;80;21598;-70
2021/05/04 01:46:35;;;;;;;13.88;7.05;;;;;;;3.15;78.07;100330.48;1774407;80;21132;-70
2021/05/04 01:49:05;;;;;;;13.05;7.15;;;;;;;3.16;78.09;100323.78;1774512;80;21763;-70
2021/05/04 01:51:32;;;;;;;11.93;6.62;;;;;;;3.19;78.10;100327.48;1774426;80;21212;-70
2021/05/04 01:53:58;;;;;;;13.98;7.25;;;;;;;3.19;78.12;100327.96;1774283;80;21121;-70
2021/05/04 01:56:24;;;;;;;23.25;7.42;;;;;;;3.21;78.11;100324.23;1774285;80;21156;-70
2021/05/04 01:58:51;;;;;;;12.73;7.33;;;;;;;3.26;78.12;100323.87;1774106;80;22140;-70
2021/05/04 02:01:17;;;;;;;12.80;6.80;;;;;;;3.28;78.10;100313.55;1774378;80;21161;-70
2021/05/04 02:03:44;;;;;;;24.25;11.75;;;;;;;3.27;78.10;100313.18;1774440;80;21367;-70
2021/05/04 02:06:10;;;;;;;13.58;7.50;;;;;;;3.24;78.11;100302.89;1774264;80;21168;-70
2021/05/04 02:08:37;;;;;;;19.20;8.90;;;;;;;3.23;78.10;100298.61;1774208;80;21168;-70
2021/05/04 02:11:05;;;;;;;16.00;8.75;;;;;;;3.19;78.10;100291.91;1774498;80;21212;-70
2021/05/04 02:13:31;;;;;;;16.73;8.35;;;;;;;3.17;78.13;100289.87;1774342;80;21163;-70
2021/05/04 02:15:57;;;;;;;13.43;8.43;;;;;;;3.16;78.12;100286.90;1774435;80;21922;-70
2021/05/04 02:18:24;;;;;;;17.07;8.85;;;;;;;3.15;78.12;100285.22;1774211;80;21171;-70
2021/05/04 02:20:50;;;;;;;13.85;8.35;;;;;;;3.14;78.13;100282.22;1760165;81;21627;-70
2021/05/04 02:23:16;;;;;;;16.05;8.33;;;;;;;3.12;78.13;100276.73;1760184;81;21624;-70
2021/05/04 02:25:43;;;;;;;16.23;8.80;;;;;;;3.09;78.14;100275.19;1759976;81;21669;-70
2021/05/04 02:28:09;;;;;;;18.85;9.00;;;;;;;3.08;78.16;100276.62;1760256;81;21986;-70
2021/05/04 02:30:35;;;;;;;18.87;9.40;;;;;;;3.07;78.16;100272.30;1760034;81;21158;-70
2021/05/04 02:33:02;;;;;;;17.37;9.23;;;;;;;3.05;78.20;100266.34;1760265;81;21163;-70
2021/05/04 02:35:28;;;;;;;17.12;8.93;;;;;;;3.04;78.19;100261.55;1760155;81;21612;-71
2021/05/04 02:37:55;;;;;;;15.88;8.95;;;;;;;3.06;78.20;100262.27;1760125;81;21163;-70
2021/05/04 02:40:22;;;;;;;13.58;7.87;;;;;;;3.08;78.23;100260.34;1760186;81;21157;-70
2021/05/04 02:42:48;;;;;;;17.90;9.30;;;;;;;3.10;78.20;100258.40;1760270;81;21175;-70
2021/05/04 02:45:15;;;;;;;15.05;9.78;;;;;;;3.08;78.22;100255.06;1760312;81;21151;-70
2021/05/04 02:47:41;;;;;;;15.88;9.05;;;;;;;3.08;78.25;100248.48;1760130;81;21136;-70
2021/05/04 02:50:09;;;;;;;16.73;8.80;;;;;;;3.10;78.23;100247.86;1760262;81;21600;-70
2021/05/04 02:52:35;;;;;;;13.50;8.98;;;;;;;3.12;78.24;100241.16;1760021;80;21284;-70
2021/05/04 02:55:01;;;;;;;16.77;8.53;;;;;;;3.13;78.25;100238.38;1760041;81;21164;-70
2021/05/04 02:57:28;;;;;;;19.23;9.43;;;;;;;3.15;78.25;100235.16;1760157;81;21175;-70
2021/05/04 02:59:54;;;;;;;17.90;9.28;;;;;;;3.17;78.26;100237.65;1760152;81;21147;-70
2021/05/04 03:02:20;;;;;;;16.25;8.73;;;;;;;3.16;78.25;100226.30;1760324;81;21171;-70
2021/05/04 03:04:46;;;;;;;16.50;9.38;;;;;;;3.17;78.26;100222.69;1760236;81;21202;-70
2021/05/04 03:07:13;;;;;;;16.70;9.40;;;;;;;3.17;78.28;100221.36;1759984;81;21199;-70
2021/05/04 03:09:39;;;;;;;14.00;8.33;;;;;;;3.18;78.27;100213.83;1759861;81;21119;-70
2021/05/04 03:12:06;;;;;;;17.07;8.63;;;;;;;3.19;78.30;100210.23;1760114;81;21206;-70
2021/05/04 03:14:33;;;;;;;15.75;8.30;;;;;;;3.22;78.30;100212.61;1760149;81;21608;-70
2021/05/04 03:16:59;;;;;;;13.22;8.70;;;;;;;3.25;78.29;100204.92;1760176;81;22194;-70
2021/05/04 03:19:25;;;;;;;22.17;12.95;;;;;;;3.27;78.30;100195.92;1767282;80;21608;-70
2021/05/04 03:21:52;;;;;;;15.18;9.38;;;;;;;3.31;78.29;100192.06;1785312;80;21600;-71
2021/05/04 03:24:18;;;;;;;18.75;12.82;;;;;;;3.33;78.26;100188.84;1785794;80;21172;-70
2021/05/04 03:26:45;;;;;;;25.48;14.90;;;;;;;3.34;78.30;100184.41;1785464;80;21143;-70
2021/05/04 03:29:11;;;;;;;24.75;11.00;;;;;;;3.37;78.29;100184.98;1785415;80;21290;-70
2021/05/04 03:31:38;;;;;;;20.88;11.60;;;;;;;3.39;78.28;100187.00;1785534;80;21163;-70
2021/05/04 03:34:04;;;;;;;21.33;10.40;;;;;;;3.40;78.27;100173.34;1785683;80;21155;-70
2021/05/04 03:36:31;;;;;;;27.15;11.60;;;;;;;3.43;78.28;100175.23;1785549;80;21625;-70
2021/05/04 03:38:57;;;;;;;20.40;9.43;;;;;;;3.45;78.26;100170.66;1785411;80;21136;-70
2021/05/04 03:41:24;;;;;;;16.30;8.63;;;;;;;3.48;78.25;100170.38;1785734;80;21994;-70
2021/05/04 03:43:50;;;;;;;23.27;10.95;;;;;;;3.52;78.23;100167.84;1785379;80;21605;-71
2021/05/04 03:46:16;;;;;;;27.17;10.98;;;;;;;3.53;78.21;100162.94;1785686;80;21224;-70
2021/05/04 03:48:43;;;;;;;16.65;7.75;;;;;;;3.57;78.18;100158.72;1785614;80;21159;-70
2021/05/04 03:51:09;;;;;;;15.13;8.85;;;;;;;3.61;78.17;100157.49;1785644;79;21108;-70
2021/05/04 03:53:37;;;;;;;15.18;8.53;;;;;;;3.65;78.10;100157.59;1785425;80;21195;-70
2021/05/04 03:56:04;;;;;;;25.05;12.00;;;;;;;3.70;78.09;100148.78;1785474;80;21180;-70
2021/05/04 03:58:32;;;;;;;13.85;7.60;;;;;;;3.75;78.04;100149.23;1785709;80;21212;-70
2021/05/04 04:00:59;;;;;;;21.87;8.30;;;;;;;3.78;78.03;100140.56;1785132;80;21640;-70
2021/05/04 04:03:25;;;;;;;14.30;7.85;;;;;;;3.81;78.02;100135.02;1785639;80;21184;-70
2021/05/04 04:05:52;;;;;;;17.10;9.55;;;;;;;3.86;77.99;100141.22;1785627;80;21233;-70
2021/05/04 04:08:20;;;;;;;16.62;7.92;;;;;;;3.91;77.97;100133.73;1785257;80;21172;-70
2021/05/04 04:10:46;;;;;;;16.48;7.47;;;;;;;3.97;77.93;100133.22;1785670;80;21171;-70
2021/05/04 04:13:13;;;;;;;21.33;9.60;;;;;;;4.00;77.89;100123.70;1785813;80;21647;-70
2021/05/04 04:15:40;;;;;;;19.80;9.48;;;;;;;4.03;77.87;100119.48;1785824;80;21112;-70
2021/05/04 04:18:06;;;;;;;21.25;10.03;;;;;;;4.09;77.83;100118.09;1785801;80;22119;-70
2021/05/04 04:20:32;;;;;;;17.40;8.08;;;;;;;4.11;77.76;100117.00;1778710;80;21704;-70
2021/05/04 04:22:59;;;;;;;14.20;7.35;;;;;;;4.15;77.72;100117.56;1773948;80;21156;-70
2021/05/04 04:25:25;;;;;;;20.25;9.90;;;;;;;4.19;77.68;100109.70;1774371;80;21191;-70
2021/05/04 04:27:51;;;;;;;14.75;8.85;;;;;;;4.24;77.65;100112.30;1774368;80;21139;-70
2021/05/04 04:30:19;;;;;;;15.20;7.75;;;;;;;4.25;77.60;100107.38;1774213;80;21249;-70
2021/05/04 04:32:46;;;;;;;14.90;7.12;;;;;;;4.29;77.57;100104.79;1774365;80;21597;-70
2021/05/04 04:35:12;;;;;;;10.10;5.90;;;;;;;4.33;77.52;100103.55;1774317;80;21141;-71
2021/05/04 04:37:39;;;;;;;13.80;6.95;;;;;;;4.37;77.48;100097.02;1774276;80;21196;-71
2021/05/04 04:40:06;;;;;;;8.93;6.15;;;;;;;4.42;77.43;100098.78;1774393;80;21185;-71
2021/05/04 04:42:32;;;;;;;14.60;6.80;;;;;;;4.46;77.40;100098.86;1774483;80;21636;-71
2021/05/04 04:44:59;;;;;;;11.53;6.95;;;;;;;4.50;77.34;100089.66;1774268;80;21588;-70
2021/05/04 04:47:25;;;;;;;12.68;5.70;;;;;;;4.58;77.29;100096.05;1774318;80;21620;-71
2021/05/04 04:49:51;;;;;;;13.25;6.45;;;;;;;4.65;77.25;100083.95;1774457;80;21198;-70
2021/05/04 04:52:18;;;;;;;20.00;9.73;;;;;;;4.76;77.22;100082.49;1774407;80;21136;-71
2021/05/04 04:54:44;;;;;;;13.72;8.00;;;;;;;4.86;77.15;100084.63;1774429;80;21231;-71
2021/05/04 04:57:10;;;;;;;9.88;5.83;;;;;;;4.99;77.07;100074.63;1774305;80;21136;-71
2021/05/04 04:59:37;;;;;;;13.20;6.15;;;;;;;5.16;77.04;100069.08;1774312;80;21156;-71
2021/05/04 05:02:03;;;;;;;11.12;5.78;;;;;;;5.30;76.98;100060.69;1774407;80;21597;-71
2021/05/04 05:04:29;;;;;;;18.48;9.83;;;;;;;5.46;76.93;100057.77;1774562;80;21148;-71
2021/05/04 05:06:56;;;;;;;14.15;7.20;;;;;;;5.51;76.87;100052.88;1774299;80;21164;-71
2021/05/04 05:09:22;;;;;;;19.67;8.70;;;;;;;5.53;76.81;100040.33;1774405;80;21180;-71
2021/05/04 05:11:49;;;;;;;15.63;6.95;;;;;;;5.51;76.76;100038.34;1774494;80;21590;-71
2021/05/04 05:14:15;;;;;;;12.45;6.53;;;;;;;5.52;76.71;100036.02;1774015;80;21172;-71
2021/05/04 05:16:41;;;;;;;17.90;7.65;;;;;;;5.57;76.64;100044.00;1774381;80;21128;-71
2021/05/04 05:19:08;;;;;;;26.40;11.75;;;;;;;5.61;76.59;100034.80;1774267;80;21192;-71
2021/05/04 05:21:36;;;;;;;54.90;22.58;;;;;;;5.61;76.45;100030.83;1774221;80;21746;-71
2021/05/04 05:24:03;;;;;;;33.45;13.30;;;;;;;5.71;76.37;100027.64;1774364;80;21128;-71
2021/05/04 05:26:30;;;;;;;23.52;8.70;;;;;;;5.84;76.28;100021.53;1774553;80;21156;-71
2021/05/04 05:28:57;;;;;;;18.23;7.75;;;;;;;5.98;76.20;100017.08;1774452;80;21164;-71
2021/05/04 05:31:26;;;;;;;19.48;9.38;;;;;;;6.09;76.13;100014.19;1774267;80;21191;-71
2021/05/04 05:33:53;;;;;;;36.00;12.50;;;;;;;6.19;76.02;100009.68;1774373;80;21137;-71
2021/05/04 05:36:20;;;;;;;34.15;14.60;;;;;;;6.27;75.93;100003.11;1774158;80;21180;-71
2021/05/04 05:38:47;;;;;;;26.30;12.50;;;;;;;6.35;75.84;99999.22;1774311;80;21172;-71
2021/05/04 05:41:13;;;;;;;14.65;6.62;;;;;;;6.47;75.77;99999.30;1774349;80;21156;-71
2021/05/04 05:43:40;;;;;;;12.88;7.30;;;;;;;6.58;75.67;99989.47;1774154;80;21227;-71
2021/05/04 05:46:07;;;;;;;13.00;6.47;;;;;;;6.69;75.58;99978.59;1774332;80;21124;-71
2021/05/04 05:48:33;;;;;;;12.15;6.85;;;;;;;6.80;75.51;99978.34;1774315;80;21137;-71
2021/05/04 05:50:59;;;;;;;16.30;9.73;;;;;;;6.96;75.43;99965.20;1774324;80;21168;-71
2021/05/04 05:53:26;;;;;;;33.02;17.67;;;;;;;7.22;75.33;99967.80;1764043;80;21156;-72
2021/05/04 05:55:52;;;;;;;19.50;8.73;;;;;;;7.40;75.23;99964.08;1738312;81;21250;-71
2021/05/04 05:58:18;;;;;;;22.40;11.90;;;;;;;7.59;75.13;99959.50;1748117;80;21196;-72
2021/05/04 06:00:44;;;;;;;13.48;7.60;;;;;;;7.70;75.02;99957.88;1774670;80;21148;-72
2021/05/04 06:03:11;;;;;;;11.78;7.00;;;;;;;7.85;74.89;99952.24;1772567;80;21815;-72
2021/05/04 06:05:37;;;;;;;13.58;8.78;;;;;;;7.96;74.78;99950.61;1760709;80;21534;-72
2021/05/04 06:08:04;;;;;;;25.70;14.63;;;;;;;8.05;74.66;99946.98;1774387;80;21672;-72
2021/05/04 06:10:30;;;;;;;31.07;16.15;;;;;;;8.15;74.50;99944.99;1774141;80;21185;-72
2021/05/04 06:13:06;;;;;;;19.50;10.95;;;;;;;8.25;74.35;99943.49;1774381;80;21666;-72
2021/05/04 06:15:33;;;;;;;11.70;6.78;;;;;;;8.30;74.20;99938.03;1774222;80;21553;-72
2021/05/04 06:17:59;;;;;;;11.12;7.50;;;;;;;8.34;74.06;99938.03;1774458;80;21164;-72
2021/05/04 06:20:26;;;;;;;15.10;8.58;;;;;;;8.34;73.88;99932.72;1774122;80;21610;-72
2021/05/04 06:22:53;;;;;;;17.50;9.23;;;;;;;8.36;73.72;99932.56;1774269;80;21601;-72
2021/05/04 06:25:19;;;;;;;25.65;9.70;;;;;;;8.38;73.57;99923.42;1774502;80;21117;-72
2021/05/04 06:27:46;;;;;;;12.73;6.33;;;;;;;8.39;73.42;99920.27;1774192;80;21160;-72
2021/05/04 06:30:14;;;;;;;8.90;5.55;;;;;;;8.42;73.29;99914.62;1737551;82;21209;-72
2021/05/04 06:32:42;;;;;;;9.08;6.05;;;;;;;8.47;73.15;99921.60;1737563;82;21256;-72
2021/05/04 06:35:12;;;;;;;10.65;5.70;;;;;;;8.52;73.00;99914.77;1737486;82;21570;-72
2021/05/04 06:37:38;;;;;;;14.38;7.70;;;;;;;8.53;72.82;99911.13;1737696;82;21138;-72
2021/05/04 06:40:06;;;;;;;19.55;9.18;;;;;;;8.57;72.69;99904.14;1737454;82;21205;-72
2021/05/04 06:42:33;;;;;;;21.10;11.18;;;;;;;8.67;72.56;99903.45;1737693;82;21721;-72
2021/05/04 06:44:59;;;;;;;24.95;14.93;;;;;;;8.74;72.41;99891.14;1719167;83;21250;-71
2021/05/04 06:47:25;;;;;;;50.95;25.88;;;;;;;8.79;72.25;99894.96;1719225;83;21657;-72
2021/05/04 06:49:51;;;;;;;9.48;5.53;;;;;;;8.85;72.11;99888.95;1719160;83;21168;-72
2021/05/04 06:52:18;;;;;;;9.93;5.92;;;;;;;8.86;71.94;99885.80;1713869;83;21489;-72
2021/05/04 06:54:45;;;;;;;10.28;6.00;;;;;;;8.89;71.80;99886.78;1719054;83;21231;-72
2021/05/04 06:57:11;;;;;;;8.50;4.95;;;;;;;8.94;71.69;99880.42;1719361;83;21441;-72
2021/05/04 06:59:38;;;;;;;8.78;5.28;;;;;;;9.00;71.53;99873.11;1718827;83;21192;-72
2021/05/04 07:02:04;;;;;;;8.73;5.60;;;;;;;8.98;71.36;99867.12;1708145;83;21156;-72
2021/05/04 07:04:30;;;;;;;11.90;6.20;;;;;;;8.97;71.22;99860.97;1697158;83;21212;-72
2021/05/04 07:06:56;;;;;;;10.48;5.55;;;;;;;9.04;71.09;99853.15;1688919;85;21653;-72
2021/05/04 07:09:23;;;;;;;10.30;6.03;;;;;;;9.05;70.99;99845.48;1690338;83;22112;-72
2021/05/04 07:11:49;;;;;;;8.80;5.30;;;;;;;9.02;70.81;99845.33;1697039;83;21180;-72
2021/05/04 07:14:15;;;;;;;11.73;7.33;;;;;;;9.00;70.66;99850.01;1708511;83;21713;-72
2021/05/04 07:16:42;;;;;;;12.28;6.10;;;;;;;9.05;70.53;99841.48;1709039;83;21140;-71
2021/05/04 07:19:09;;;;;;;11.30;6.53;;;;;;;9.07;70.40;99835.52;1695935;83;21136;-72
2021/05/04 07:21:35;;;;;;;9.90;5.53;;;;;;;9.12;70.27;99837.12;1702413;82;21621;-72
2021/05/04 07:24:03;;;;;;;9.48;5.12;;;;;;;9.16;70.16;99830.46;1722456;81;21207;-72
2021/05/04 07:26:30;;;;;;;10.90;5.30;;;;;;;9.21;70.01;99828.62;1715284;82;21182;-72
2021/05/04 07:28:57;;;;;;;9.00;5.50;;;;;;;9.25;69.89;99817.45;1700809;82;21155;-72
2021/05/04 07:31:23;;;;;;;12.10;7.33;;;;;;;9.36;69.75;99813.03;1752264;81;21158;-72
2021/05/04 07:33:50;;;;;;;7.70;5.75;;;;;;;9.47;69.66;99812.63;1739180;81;21197;-72
2021/05/04 07:36:16;;;;;;;9.50;5.25;;;;;;;9.63;69.55;99808.20;1749891;81;21207;-72
2021/05/04 07:38:43;;;;;;;10.82;5.55;;;;;;;9.74;69.39;99803.80;1752021;81;21197;-73
2021/05/04 07:41:10;;;;;;;11.12;7.53;;;;;;;9.80;69.28;99791.09;1692974;83;21172;-72
2021/05/04 07:43:36;;;;;;;9.58;6.25;;;;;;;9.84;69.13;99793.72;1699898;83;21231;-71
2021/05/04 07:46:02;;;;;;;9.00;5.25;;;;;;;9.90;69.00;99791.66;1754839;81;21205;-71
2021/05/04 07:48:29;;;;;;;10.08;6.60;;;;;;;9.89;68.87;99784.66;1734776;81;21196;-72
2021/05/04 07:50:55;;;;;;;10.75;7.30;;;;;;;9.86;68.71;99785.03;1714081;82;21130;-72
2021/05/04 07:53:22;;;;;;;61.10;25.60;;;;;;;9.86;68.56;99780.54;1691766;83;21178;-72
2021/05/04 07:55:49;;;;;;;11.20;6.40;;;;;;;9.88;68.41;99767.05;1688173;84;21215;-72
2021/05/04 07:58:15;;;;;;;8.90;6.45;;;;;;;9.97;68.29;99765.95;1709409;83;21587;-72
2021/05/04 08:00:41;;;;;;;10.78;6.35;;;;;;;10.02;68.19;99760.92;1709195;83;21154;-72
2021/05/04 08:03:07;;;;;;;16.02;7.25;;;;;;;10.01;68.07;99745.94;1713343;83;21138;-72
2021/05/04 08:05:34;;;;;;;8.48;5.95;;;;;;;10.09;67.99;99745.03;1715022;83;21218;-72
2021/05/04 08:08:00;;;;;;;7.62;5.10;;;;;;;10.17;67.92;99735.13;1698847;83;21139;-71
2021/05/04 08:10:26;;;;;;;8.90;5.72;;;;;;;10.24;67.85;99737.38;1707454;81;21251;-72
2021/05/04 08:12:52;;;;;;;9.18;5.22;;;;;;;10.38;67.72;99713.89;1688752;83;21250;-72
2021/05/04 08:15:20;;;;;;;9.55;5.47;;;;;;;10.56;67.53;99710.84;1715177;83;21153;-72
2021/05/04 08:20:34;;;;;;;10.28;5.17;;;;;;;10.95;67.19;99688.63;1842625;77;22725;-70
2021/05/04 08:22:59;;;;;;;6.08;4.95;;;;;;;11.09;67.02;99690.08;1745439;81;21644;-70
2021/05/04 08:25:26;;;;;;;8.43;5.00;;;;;;;11.20;66.78;99678.40;1751453;81;21289;-70
2021/05/04 08:27:52;;;;;;;7.00;5.08;;;;;;;11.31;66.52;99678.39;1747443;81;21210;-70
2021/05/04 08:30:20;;;;;;;7.05;5.28;;;;;;;11.41;66.34;99663.70;1751465;80;21173;-70
2021/05/04 08:32:48;;;;;;;8.48;4.40;;;;;;;11.52;66.14;99657.83;1775463;80;21666;-70
2021/05/04 08:35:15;;;;;;;9.23;4.65;;;;;;;11.52;65.73;99652.49;1763591;79;21187;-70
2021/05/04 08:37:41;;;;;;;7.80;4.58;;;;;;;11.52;65.41;99647.66;1740789;81;21561;-70
2021/05/04 08:40:10;;;;;;;7.33;4.37;;;;;;;11.60;65.14;99649.36;1737261;81;21670;-70
2021/05/04 08:42:36;;;;;;;10.80;5.83;;;;;;;11.68;64.89;99633.19;1740577;81;21178;-72
2021/05/04 08:45:05;;;;;;;7.80;5.75;;;;;;;11.74;64.59;99629.77;1744719;81;21241;-72
2021/05/04 08:47:31;;;;;;;6.83;4.70;;;;;;;11.98;64.30;99623.43;1745532;81;21177;-73
2021/05/04 08:49:58;;;;;;;8.35;4.90;;;;;;;12.19;64.10;99623.83;1749489;80;21271;-72
2021/05/04 08:52:26;;;;;;;5.15;3.98;;;;;;;12.32;63.95;99614.52;1719806;82;21507;-73
2021/05/04 08:54:52;;;;;;;5.10;4.15;;;;;;;12.45;63.85;99609.20;1723617;82;21120;-73
2021/05/04 08:57:19;;;;;;;5.97;4.47;;;;;;;12.53;63.63;99607.70;1690643;82;21193;-72
2021/05/04 08:59:45;;;;;;;6.15;4.58;;;;;;;12.51;63.17;99608.42;1721106;81;21164;-72
2021/05/04 09:02:12;;;;;;;7.40;4.42;;;;;;;12.55;62.90;99597.32;1715629;82;21181;-72
2021/05/04 09:04:41;;;;;;;11.03;4.45;;;;;;;12.74;62.74;99590.66;1717226;82;21215;-72
2021/05/04 09:07:21;;;;;;;5.35;4.85;;;;;;;13.04;62.60;99579.06;1719461;81;21225;-71
2021/05/04 09:13:00;;;;;;;5.85;4.55;;;;;;;13.68;62.15;99552.95;1717018;82;21215;-71
2021/05/04 09:21:14;;;;;;;;;;;;;;;14.76;60.58;99521.98;1720597;83;21159;-71
2021/05/04 09:23:42;;;;;;;7.00;4.20;;;;;;;15.05;59.98;99524.53;1703513;81;20296;-72
2021/05/04 09:26:20;;;;;;;6.08;4.12;;;;;;;14.94;59.44;99525.25;1760200;81;21588;-71
2021/05/04 09:28:48;;;;;;;10.25;7.47;;;;;;;14.81;58.95;99507.37;1723137;82;21218;-71
2021/05/04 09:31:23;;;;;;;5.12;3.27;;;;;;;14.63;58.53;99498.45;1755312;81;21127;-71
2021/05/04 09:33:49;;;;;;;8.40;6.90;;;;;;;14.54;58.00;99501.08;1737924;81;21230;-71
2021/05/04 09:36:40;;;;;;;5.15;3.65;;;;;;;14.45;57.13;99500.55;1711635;83;21212;-71
2021/05/04 09:39:08;;;;;;;5.05;3.37;;;;;;;14.35;56.41;99494.83;1748410;81;21635;-70
2021/05/04 09:41:35;;;;;;;4.80;3.75;;;;;;;14.31;55.74;99494.41;1717422;83;21213;-71
2021/05/04 09:44:01;;;;;;;9.10;6.85;;;;;;;14.30;55.18;99476.67;1751885;80;21202;-71
2021/05/04 09:46:49;;;;;;;11.73;8.03;;;;;;;14.31;54.94;99482.34;1704711;83;21171;-71
2021/05/04 09:49:28;;;;;;;7.45;4.65;;;;;;;14.52;54.99;99469.12;1727117;81;21192;-71
2021/05/04 09:52:21;;;;;;;6.78;4.08;;;;;;;14.80;54.71;99468.17;1750996;81;21784;-71
2021/05/04 09:54:46;;;;;;;7.53;6.42;;;;;;;15.03;54.39;99450.08;1721019;81;21213;-71
2021/05/04 09:57:35;;;;;;;6.90;4.42;;;;;;;15.13;53.42;99449.04;1716680;81;21171;-71
2021/05/04 10:00:04;;;;;;;8.30;5.80;;;;;;;15.29;53.38;99451.16;1752626;80;21152;-71
2021/05/04 10:02:30;;;;;;;13.98;9.03;;;;;;;15.48;53.10;99439.38;1724889;83;21249;-71
2021/05/04 10:04:56;;;;;;;12.07;9.33;;;;;;;15.53;52.68;99428.48;1724644;83;21180;-71
2021/05/04 10:07:23;;;;;;;10.23;6.58;;;;;;;15.59;52.45;99408.75;1725170;83;21280;-71
2021/05/04 10:09:50;;;;;;;6.58;5.12;;;;;;;15.68;52.15;99415.48;1725523;82;21615;-71
2021/05/04 10:12:20;;;;;;;6.55;4.90;;;;;;;15.76;50.74;99382.91;1725400;82;21624;-71
2021/05/04 10:14:46;;;;;;;;;;;;;;;15.76;50.74;99382.91;1728137;83;21165;-71
2021/05/04 10:17:15;;;;;;;11.05;4.75;;;;;;;15.91;49.97;99383.29;1725450;83;20269;-71
2021/05/04 10:19:41;;;;;;;5.58;3.95;;;;;;;15.94;49.48;99385.52;1726468;82;21181;-71
2021/05/04 10:22:07;;;;;;;13.00;4.30;;;;;;;15.96;48.91;99367.30;1737756;82;21159;-71
2021/05/04 10:24:33;;;;;;;6.40;4.72;;;;;;;15.86;48.24;99363.02;1712747;82;21256;-70
2021/05/04 10:27:01;;;;;;;7.45;4.08;;;;;;;15.73;48.16;99364.52;1726011;81;21204;-71
2021/05/04 10:29:28;;;;;;;13.40;6.95;;;;;;;15.58;48.21;99360.10;1710977;83;21723;-71
2021/05/04 10:31:57;;;;;;;9.63;4.97;;;;;;;15.57;48.17;99353.08;1730884;81;21283;-71
2021/05/04 10:34:30;;;;;;;7.72;3.87;;;;;;;15.71;48.39;99351.33;1748152;81;21173;-71
2021/05/04 10:37:09;;;;;;;8.13;3.85;;;;;;;15.85;48.18;99351.95;1731735;82;21179;-71
2021/05/04 10:39:41;;;;;;;6.58;4.67;;;;;;;16.05;48.41;99347.60;1725913;82;21174;-71
2021/05/04 10:42:10;;;;;;;7.92;6.08;;;;;;;16.19;48.26;99347.69;1743365;81;21152;-71
2021/05/04 10:45:00;;;;;;;8.75;5.60;;;;;;;16.19;47.73;99348.52;1721258;82;21220;-71
2021/05/04 10:47:48;;;;;;;7.28;3.98;;;;;;;16.09;47.63;99339.38;1739769;82;21202;-71
2021/05/04 10:50:24;;;;;;;5.37;4.05;;;;;;;16.14;47.85;99329.58;1740052;82;21203;-71
2021/05/04 10:52:57;;;;;;;5.85;3.98;;;;;;;16.08;47.88;99331.83;1739716;82;21137;-71
2021/05/04 10:55:25;;;;;;;6.22;3.92;;;;;;;16.12;48.19;99326.28;1729854;82;21197;-71
2021/05/04 10:58:09;;;;;;;6.72;4.60;;;;;;;16.16;48.30;99323.95;1726906;82;21323;-71
2021/05/04 11:01:04;;;;;;;7.40;3.70;;;;;;;16.04;48.27;99310.50;1726508;83;21179;-71
2021/05/04 11:03:36;;;;;;;7.00;3.70;;;;;;;16.08;48.34;99321.62;1726793;83;21156;-71
2021/05/04 11:06:26;;;;;;;3.75;2.77;;;;;;;16.11;48.29;99324.66;1739516;81;21170;-71
2021/05/04 11:08:57;;;;;;;;;;;;;;;16.13;48.55;99330.62;1743993;81;21159;-70
2021/05/04 11:11:40;;;;;;;6.58;2.42;;;;;;;15.97;47.49;99320.00;1739283;82;21157;-70
2021/05/04 11:14:18;;;;;;;2.65;1.62;;;;;;;15.87;46.78;99340.43;1708252;82;21202;-70
2021/05/04 11:16:49;;;;;;;6.58;1.80;;;;;;;15.74;46.05;99335.26;1737183;82;21726;-71
2021/05/04 11:19:17;;;;;;;6.20;2.40;;;;;;;15.49;45.10;99324.13;1739938;81;21201;-70
2021/05/04 11:21:48;;;;;;;2.37;2.02;;;;;;;15.20;43.95;99351.75;1740896;81;21138;-70
2021/05/04 11:24:25;;;;;;;3.17;2.70;;;;;;;15.20;43.95;99351.75;1749804;81;21205;-69
2021/05/04 11:27:00;;;;;;;6.22;2.25;;;;;;;15.07;43.64;99355.95;1724533;83;21168;-69
2021/05/04 11:29:38;;;;;;;4.08;2.05;;;;;;;14.95;43.51;99353.73;1758078;81;21139;-69
2021/05/04 11:32:17;;;;;;;4.58;2.30;;;;;;;14.79;43.67;99367.72;1746045;80;21187;-69
2021/05/04 11:34:52;;;;;;;4.50;2.17;;;;;;;14.68;43.96;99376.49;1733163;81;21157;-69
2021/05/04 11:37:29;;;;;;;5.97;2.62;;;;;;;14.59;44.29;99380.52;1740548;81;21250;-69
2021/05/04 11:39:59;;;;;;;6.72;3.05;;;;;;;14.22;44.96;99388.93;1747330;81;21163;-69
2021/05/04 11:42:43;;;;;;;11.65;10.08;;;;;;;13.81;45.99;99401.48;1746737;80;21220;-69
2021/05/04 11:45:20;;;;;;;3.02;2.83;;;;;;;13.47;46.98;99398.14;1782257;80;21176;-69